首页
METAR-TAF:

METAR-TAF

机场 :

維也納國際機場

維也納, 奥地利

纬度: 48-07N, 经度: 016-34E, 海拔: 183米

当前天气观测

该预报发布于42分钟前的04:50 UTC
风速21节,风向西
温度 11°C
湿度 62%
气压 1023 hPa
能见度10公里或以上
散云层高于4000英尺
多云层高于6000英尺
小雨

METAR: LOWW 230450Z 27021KT 9999 -RA SCT040 BKN060 11/04 Q1023 NOSIG

时间: 06:32 (05:32 UTC)

预报

该预报发布于17分钟前的05:15 UTC
预报有效从23日的 06点(UTC)到 24日的 12点(UTC)
风速23节,风向西
能见度10公里或以上
1500米以下无云,无积雨云
成为
从 23日的 07点(UTC)到 23日的 09点(UTC)
风速13节,风向西转西南
短暂存在
从 23日的 11点(UTC)到 23日的 15点(UTC)
风速6节,风向
成为
从 23日的 17点(UTC)到 23日的 19点(UTC)
风速25节,风向西,有时为40节阵风
短暂存在
从 23日的 19点(UTC)到 23日的 24点(UTC)
风速35节,风向西,有时为50节阵风
几率 40% :
短暂存在
从 23日的 21点(UTC)到 23日的 24点(UTC)
风速40节,风向西,有时为60节阵风
从 24日的 0000点(UTC)
风速30节,风向西北,有时为40节阵风
能见度10公里或以上
多云层高于4000英尺
少量云层高于4000英尺, 塔状积云.
阵雨
从 24日的 0300点(UTC)
风速15节,风向北转西北,有时为30节阵风
能见度10公里或以上
少量云层高于4000英尺
成为
从 24日的 08点(UTC)到 24日的 10点(UTC)
风速10节,风向西转西北

TAF: LOWW 230515Z 2306/2412 27023KT CAVOK TX17/2317Z TN08/2406Z BECMG 2307/2309 24013KT TEMPO 2311/2315 17006KT BECMG 2317/2319 26025G40KT TEMPO 2319/2324 27035G50KT PROB40 TEMPO 2321/2324 28040G60KT FM240000 32030G40KT 9999 SHRA BKN040 FEW040TCU FM240300 33015G30KT 9999 FEW040 BECMG 2408/2410 30010KT

超过4000个机场的气象观测和天气预报(METAR&TAF报告)。

可查询的气象台以黄色和红色小点在地图上表示。

将鼠标移到小点上方,可查看气象台名称。

然后点击查看天气观测和预报。

如需切换地图:点击带黑十字的绿色按钮放大地图;点击带横线的绿色按钮缩小地图;或者点击绿色箭头查看邻近地区的地图。


METAR-TAF: